sensor_id;sensor_type;location;lat;lon;timestamp;P1;durP1;ratioP1;P2;durP2;ratioP2
51238;SDS011;38154;47.548;18.828;2023-03-03T00:01:05;6.12;;;4.25;;
51238;SDS011;38154;47.548;18.828;2023-03-03T00:03:31;6.28;;;3.25;;
51238;SDS011;38154;47.548;18.828;2023-03-03T00:05:58;5.20;;;2.70;;
51238;SDS011;38154;47.548;18.828;2023-03-03T00:08:24;5.80;;;2.73;;
51238;SDS011;38154;47.548;18.828;2023-03-03T00:10:50;7.57;;;3.00;;
51238;SDS011;38154;47.548;18.828;2023-03-03T00:13:18;3.58;;;2.10;;
51238;SDS011;38154;47.548;18.828;2023-03-03T00:15:46;9.52;;;3.40;;
51238;SDS011;38154;47.548;18.828;2023-03-03T00:18:55;5.22;;;2.95;;
51238;SDS011;38154;47.548;18.828;2023-03-03T00:21:18;7.37;;;3.45;;
51238;SDS011;38154;47.548;18.828;2023-03-03T00:34:46;5.47;;;3.80;;
51238;SDS011;38154;47.548;18.828;2023-03-03T00:39:55;13.35;;;4.03;;
51238;SDS011;38154;47.548;18.828;2023-03-03T00:42:27;6.05;;;3.62;;
51238;SDS011;38154;47.548;18.828;2023-03-03T00:44:56;6.90;;;3.72;;
51238;SDS011;38154;47.548;18.828;2023-03-03T00:49:52;5.03;;;3.40;;
51238;SDS011;38154;47.548;18.828;2023-03-03T00:52:23;7.30;;;3.33;;
51238;SDS011;38154;47.548;18.828;2023-03-03T00:54:53;4.12;;;2.05;;
51238;SDS011;38154;47.548;18.828;2023-03-03T00:57:19;5.87;;;4.10;;
51238;SDS011;38154;47.548;18.828;2023-03-03T00:59:45;6.93;;;3.67;;
51238;SDS011;38154;47.548;18.828;2023-03-03T01:02:11;5.97;;;3.05;;
51238;SDS011;38154;47.548;18.828;2023-03-03T01:04:37;15.88;;;4.50;;
51238;SDS011;38154;47.548;18.828;2023-03-03T01:07:04;7.60;;;3.87;;
51238;SDS011;38154;47.548;18.828;2023-03-03T01:09:30;7.07;;;4.05;;
51238;SDS011;38154;47.548;18.828;2023-03-03T01:11:56;4.00;;;2.80;;
51238;SDS011;38154;47.548;18.828;2023-03-03T01:14:22;9.43;;;3.35;;
51238;SDS011;38154;47.548;18.828;2023-03-03T01:16:48;6.22;;;4.22;;
51238;SDS011;38154;47.548;18.828;2023-03-03T01:19:14;9.45;;;4.37;;
51238;SDS011;38154;47.548;18.828;2023-03-03T01:21:40;10.65;;;4.25;;
51238;SDS011;38154;47.548;18.828;2023-03-03T01:24:06;11.85;;;4.72;;
51238;SDS011;38154;47.548;18.828;2023-03-03T01:26:32;11.02;;;5.28;;
51238;SDS011;38154;47.548;18.828;2023-03-03T01:28:58;8.55;;;3.58;;
51238;SDS011;38154;47.548;18.828;2023-03-03T01:31:24;8.52;;;3.47;;
51238;SDS011;38154;47.548;18.828;2023-03-03T01:33:50;5.62;;;3.25;;
51238;SDS011;38154;47.548;18.828;2023-03-03T01:36:15;7.57;;;4.30;;
51238;SDS011;38154;47.548;18.828;2023-03-03T01:38:48;6.78;;;2.83;;
51238;SDS011;38154;47.548;18.828;2023-03-03T01:41:14;6.90;;;3.90;;
51238;SDS011;38154;47.548;18.828;2023-03-03T01:43:43;6.10;;;2.75;;
51238;SDS011;38154;47.548;18.828;2023-03-03T01:48:48;9.38;;;4.22;;
51238;SDS011;38154;47.548;18.828;2023-03-03T01:51:26;7.93;;;3.87;;
51238;SDS011;38154;47.548;18.828;2023-03-03T01:54:00;7.65;;;3.70;;
51238;SDS011;38154;47.548;18.828;2023-03-03T01:56:28;5.68;;;3.05;;
51238;SDS011;38154;47.548;18.828;2023-03-03T01:58:59;6.55;;;3.17;;
51238;SDS011;38154;47.548;18.828;2023-03-03T02:01:30;11.10;;;4.93;;
51238;SDS011;38154;47.548;18.828;2023-03-03T02:03:57;4.50;;;3.28;;
51238;SDS011;38154;47.548;18.828;2023-03-03T02:06:28;8.50;;;4.90;;
51238;SDS011;38154;47.548;18.828;2023-03-03T02:08:58;13.35;;;4.78;;
51238;SDS011;38154;47.548;18.828;2023-03-03T02:11:45;6.30;;;2.80;;
51238;SDS011;38154;47.548;18.828;2023-03-03T02:14:13;7.62;;;3.30;;
51238;SDS011;38154;47.548;18.828;2023-03-03T02:16:39;6.55;;;3.42;;
51238;SDS011;38154;47.548;18.828;2023-03-03T02:19:07;4.53;;;3.33;;
51238;SDS011;38154;47.548;18.828;2023-03-03T02:21:42;8.82;;;3.42;;
51238;SDS011;38154;47.548;18.828;2023-03-03T02:24:12;9.27;;;3.45;;
51238;SDS011;38154;47.548;18.828;2023-03-03T02:26:57;12.70;;;4.87;;
51238;SDS011;38154;47.548;18.828;2023-03-03T02:29:23;10.87;;;4.20;;
51238;SDS011;38154;47.548;18.828;2023-03-03T02:31:49;13.32;;;3.70;;
51238;SDS011;38154;47.548;18.828;2023-03-03T02:34:15;10.23;;;4.60;;
51238;SDS011;38154;47.548;18.828;2023-03-03T02:36:42;6.72;;;2.90;;
51238;SDS011;38154;47.548;18.828;2023-03-03T02:39:18;4.10;;;2.42;;
51238;SDS011;38154;47.548;18.828;2023-03-03T02:41:51;5.97;;;3.33;;
51238;SDS011;38154;47.548;18.828;2023-03-03T02:44:21;8.90;;;3.65;;
51238;SDS011;38154;47.548;18.828;2023-03-03T02:46:49;7.95;;;3.75;;
51238;SDS011;38154;47.548;18.828;2023-03-03T02:49:18;10.98;;;4.00;;
51238;SDS011;38154;47.548;18.828;2023-03-03T02:51:46;8.57;;;3.28;;
51238;SDS011;38154;47.548;18.828;2023-03-03T02:54:13;5.68;;;2.78;;
51238;SDS011;38154;47.548;18.828;2023-03-03T02:56:40;8.85;;;2.97;;
51238;SDS011;38154;47.548;18.828;2023-03-03T02:59:06;7.93;;;3.58;;
51238;SDS011;38154;47.548;18.828;2023-03-03T03:01:32;6.45;;;3.53;;
51238;SDS011;38154;47.548;18.828;2023-03-03T03:04:05;4.45;;;3.00;;
51238;SDS011;38154;47.548;18.828;2023-03-03T03:06:32;5.40;;;3.00;;
51238;SDS011;38154;47.548;18.828;2023-03-03T03:08:58;5.90;;;2.97;;
51238;SDS011;38154;47.548;18.828;2023-03-03T03:11:25;4.63;;;3.23;;
51238;SDS011;38154;47.548;18.828;2023-03-03T03:13:51;7.78;;;3.75;;
51238;SDS011;38154;47.548;18.828;2023-03-03T03:16:17;5.12;;;3.10;;
51238;SDS011;38154;47.548;18.828;2023-03-03T03:18:43;4.22;;;2.65;;
51238;SDS011;38154;47.548;18.828;2023-03-03T03:21:11;6.22;;;3.62;;
51238;SDS011;38154;47.548;18.828;2023-03-03T03:23:38;7.65;;;2.83;;
51238;SDS011;38154;47.548;18.828;2023-03-03T03:26:04;5.30;;;2.80;;
51238;SDS011;38154;47.548;18.828;2023-03-03T03:28:31;5.35;;;2.72;;
51238;SDS011;38154;47.548;18.828;2023-03-03T03:30:57;7.32;;;3.78;;
51238;SDS011;38154;47.548;18.828;2023-03-03T03:33:23;12.70;;;4.57;;
51238;SDS011;38154;47.548;18.828;2023-03-03T03:35:50;4.50;;;3.10;;
51238;SDS011;38154;47.548;18.828;2023-03-03T03:38:16;10.82;;;4.45;;
51238;SDS011;38154;47.548;18.828;2023-03-03T03:40:42;8.87;;;3.97;;
51238;SDS011;38154;47.548;18.828;2023-03-03T03:43:08;7.78;;;3.25;;
51238;SDS011;38154;47.548;18.828;2023-03-03T03:45:34;7.67;;;4.17;;
51238;SDS011;38154;47.548;18.828;2023-03-03T03:48:00;10.20;;;5.18;;
51238;SDS011;38154;47.548;18.828;2023-03-03T03:50:25;10.55;;;4.10;;
51238;SDS011;38154;47.548;18.828;2023-03-03T03:52:52;7.83;;;3.00;;
51238;SDS011;38154;47.548;18.828;2023-03-03T03:55:17;7.15;;;4.82;;
51238;SDS011;38154;47.548;18.828;2023-03-03T03:57:43;10.13;;;4.90;;
51238;SDS011;38154;47.548;18.828;2023-03-03T04:00:09;10.43;;;4.53;;
51238;SDS011;38154;47.548;18.828;2023-03-03T04:05:02;10.18;;;4.03;;
51238;SDS011;38154;47.548;18.828;2023-03-03T04:07:28;10.00;;;4.53;;
51238;SDS011;38154;47.548;18.828;2023-03-03T04:09:54;12.13;;;5.72;;
51238;SDS011;38154;47.548;18.828;2023-03-03T04:12:20;9.07;;;4.50;;
51238;SDS011;38154;47.548;18.828;2023-03-03T04:14:46;6.40;;;4.28;;
51238;SDS011;38154;47.548;18.828;2023-03-03T04:17:16;8.38;;;3.70;;
51238;SDS011;38154;47.548;18.828;2023-03-03T04:19:43;10.18;;;4.90;;
51238;SDS011;38154;47.548;18.828;2023-03-03T04:22:09;14.73;;;5.00;;
51238;SDS011;38154;47.548;18.828;2023-03-03T04:24:35;7.55;;;3.72;;
51238;SDS011;38154;47.548;18.828;2023-03-03T04:27:01;14.93;;;5.00;;
51238;SDS011;38154;47.548;18.828;2023-03-03T04:29:27;4.50;;;3.97;;
51238;SDS011;38154;47.548;18.828;2023-03-03T04:31:53;7.20;;;4.68;;
51238;SDS011;38154;47.548;18.828;2023-03-03T04:34:19;15.80;;;5.22;;
51238;SDS011;38154;47.548;18.828;2023-03-03T04:36:45;10.50;;;5.20;;
51238;SDS011;38154;47.548;18.828;2023-03-03T04:39:11;10.02;;;4.18;;
51238;SDS011;38154;47.548;18.828;2023-03-03T04:41:37;13.07;;;5.40;;
51238;SDS011;38154;47.548;18.828;2023-03-03T04:44:03;8.52;;;5.22;;
51238;SDS011;38154;47.548;18.828;2023-03-03T04:46:29;11.55;;;5.22;;
51238;SDS011;38154;47.548;18.828;2023-03-03T04:48:55;6.47;;;4.40;;
51238;SDS011;38154;47.548;18.828;2023-03-03T04:51:21;11.15;;;5.07;;
51238;SDS011;38154;47.548;18.828;2023-03-03T04:53:47;5.15;;;4.22;;
51238;SDS011;38154;47.548;18.828;2023-03-03T04:56:13;6.28;;;3.60;;
51238;SDS011;38154;47.548;18.828;2023-03-03T04:58:40;10.57;;;4.80;;
51238;SDS011;38154;47.548;18.828;2023-03-03T05:01:06;7.95;;;4.35;;
51238;SDS011;38154;47.548;18.828;2023-03-03T05:03:32;8.60;;;4.75;;
51238;SDS011;38154;47.548;18.828;2023-03-03T05:05:57;7.40;;;3.97;;
51238;SDS011;38154;47.548;18.828;2023-03-03T05:08:23;7.20;;;3.65;;
51238;SDS011;38154;47.548;18.828;2023-03-03T05:10:53;9.25;;;3.90;;
51238;SDS011;38154;47.548;18.828;2023-03-03T05:13:19;7.53;;;3.60;;
51238;SDS011;38154;47.548;18.828;2023-03-03T05:15:52;9.93;;;4.13;;
51238;SDS011;38154;47.548;18.828;2023-03-03T05:18:23;5.62;;;3.33;;
51238;SDS011;38154;47.548;18.828;2023-03-03T05:20:50;7.85;;;3.45;;
51238;SDS011;38154;47.548;18.828;2023-03-03T05:23:17;6.32;;;3.42;;
51238;SDS011;38154;47.548;18.828;2023-03-03T05:25:43;4.90;;;3.17;;
51238;SDS011;38154;47.548;18.828;2023-03-03T05:28:09;8.80;;;4.05;;
51238;SDS011;38154;47.548;18.828;2023-03-03T05:30:35;8.20;;;3.73;;
51238;SDS011;38154;47.548;18.828;2023-03-03T05:33:03;8.93;;;3.45;;
51238;SDS011;38154;47.548;18.828;2023-03-03T05:35:29;6.45;;;2.58;;
51238;SDS011;38154;47.548;18.828;2023-03-03T05:37:55;9.82;;;4.82;;
51238;SDS011;38154;47.548;18.828;2023-03-03T05:40:23;5.53;;;2.95;;
51238;SDS011;38154;47.548;18.828;2023-03-03T05:42:50;5.75;;;2.90;;
51238;SDS011;38154;47.548;18.828;2023-03-03T05:45:16;6.90;;;4.30;;
51238;SDS011;38154;47.548;18.828;2023-03-03T05:47:49;9.02;;;4.43;;
51238;SDS011;38154;47.548;18.828;2023-03-03T05:52:42;6.15;;;3.17;;
51238;SDS011;38154;47.548;18.828;2023-03-03T05:55:08;8.20;;;3.37;;
51238;SDS011;38154;47.548;18.828;2023-03-03T05:57:34;7.55;;;3.92;;
51238;SDS011;38154;47.548;18.828;2023-03-03T06:00:01;9.02;;;4.30;;
51238;SDS011;38154;47.548;18.828;2023-03-03T06:02:28;8.55;;;3.90;;
51238;SDS011;38154;47.548;18.828;2023-03-03T06:04:54;8.30;;;3.53;;
51238;SDS011;38154;47.548;18.828;2023-03-03T06:07:20;12.80;;;3.42;;
51238;SDS011;38154;47.548;18.828;2023-03-03T06:09:46;12.43;;;4.85;;
51238;SDS011;38154;47.548;18.828;2023-03-03T06:12:12;8.13;;;3.45;;
51238;SDS011;38154;47.548;18.828;2023-03-03T06:14:38;7.55;;;3.40;;
51238;SDS011;38154;47.548;18.828;2023-03-03T06:17:03;6.32;;;3.78;;
51238;SDS011;38154;47.548;18.828;2023-03-03T06:19:30;5.47;;;2.75;;
51238;SDS011;38154;47.548;18.828;2023-03-03T06:21:56;6.80;;;3.67;;
51238;SDS011;38154;47.548;18.828;2023-03-03T06:24:22;6.22;;;3.53;;
51238;SDS011;38154;47.548;18.828;2023-03-03T06:29:16;10.88;;;3.75;;
51238;SDS011;38154;47.548;18.828;2023-03-03T06:31:42;6.47;;;3.70;;
51238;SDS011;38154;47.548;18.828;2023-03-03T06:34:09;4.57;;;2.42;;
51238;SDS011;38154;47.548;18.828;2023-03-03T06:36:35;6.70;;;3.05;;
51238;SDS011;38154;47.548;18.828;2023-03-03T06:39:01;12.82;;;3.65;;
51238;SDS011;38154;47.548;18.828;2023-03-03T06:41:27;8.03;;;4.53;;
51238;SDS011;38154;47.548;18.828;2023-03-03T06:43:53;5.13;;;3.17;;
51238;SDS011;38154;47.548;18.828;2023-03-03T06:46:19;8.70;;;3.45;;
51238;SDS011;38154;47.548;18.828;2023-03-03T06:48:45;8.27;;;3.57;;
51238;SDS011;38154;47.548;18.828;2023-03-03T06:51:16;7.22;;;3.33;;
51238;SDS011;38154;47.548;18.828;2023-03-03T06:53:54;8.07;;;3.53;;
51238;SDS011;38154;47.548;18.828;2023-03-03T06:56:24;12.50;;;7.30;;
51238;SDS011;38154;47.548;18.828;2023-03-03T06:58:52;17.87;;;7.93;;
51238;SDS011;38154;47.548;18.828;2023-03-03T07:01:20;17.37;;;7.62;;
51238;SDS011;38154;47.548;18.828;2023-03-03T07:03:46;11.52;;;5.68;;
51238;SDS011;38154;47.548;18.828;2023-03-03T07:06:19;22.65;;;9.70;;
51238;SDS011;38154;47.548;18.828;2023-03-03T07:08:50;16.45;;;6.32;;
51238;SDS011;38154;47.548;18.828;2023-03-03T07:11:18;18.20;;;7.55;;
51238;SDS011;38154;47.548;18.828;2023-03-03T07:13:47;17.98;;;7.62;;
51238;SDS011;38154;47.548;18.828;2023-03-03T07:16:17;14.87;;;5.95;;
51238;SDS011;38154;47.548;18.828;2023-03-03T07:18:49;13.48;;;5.60;;
51238;SDS011;38154;47.548;18.828;2023-03-03T07:21:24;15.10;;;4.85;;
51238;SDS011;38154;47.548;18.828;2023-03-03T07:23:56;12.50;;;6.18;;
51238;SDS011;38154;47.548;18.828;2023-03-03T07:28:57;17.48;;;6.85;;
51238;SDS011;38154;47.548;18.828;2023-03-03T07:31:30;12.85;;;6.12;;
51238;SDS011;38154;47.548;18.828;2023-03-03T07:33:58;22.40;;;8.35;;
51238;SDS011;38154;47.548;18.828;2023-03-03T07:36:26;17.02;;;8.48;;
51238;SDS011;38154;47.548;18.828;2023-03-03T07:38:56;16.73;;;7.57;;
51238;SDS011;38154;47.548;18.828;2023-03-03T07:41:25;16.67;;;8.05;;
51238;SDS011;38154;47.548;18.828;2023-03-03T07:46:29;17.40;;;7.45;;
51238;SDS011;38154;47.548;18.828;2023-03-03T07:49:20;15.48;;;7.78;;
51238;SDS011;38154;47.548;18.828;2023-03-03T07:51:46;17.15;;;6.35;;
51238;SDS011;38154;47.548;18.828;2023-03-03T07:56:49;19.60;;;7.12;;
51238;SDS011;38154;47.548;18.828;2023-03-03T07:59:24;16.27;;;6.90;;
51238;SDS011;38154;47.548;18.828;2023-03-03T08:01:52;14.77;;;6.18;;
51238;SDS011;38154;47.548;18.828;2023-03-03T08:07:17;15.88;;;7.35;;
51238;SDS011;38154;47.548;18.828;2023-03-03T08:12:39;16.05;;;7.32;;
51238;SDS011;38154;47.548;18.828;2023-03-03T08:17:48;20.67;;;7.55;;
51238;SDS011;38154;47.548;18.828;2023-03-03T08:22:59;14.00;;;6.22;;
51238;SDS011;38154;47.548;18.828;2023-03-03T08:25:25;17.42;;;6.57;;
51238;SDS011;38154;47.548;18.828;2023-03-03T08:27:51;24.25;;;8.10;;
51238;SDS011;38154;47.548;18.828;2023-03-03T08:30:16;16.23;;;7.93;;
51238;SDS011;38154;47.548;18.828;2023-03-03T08:32:42;27.33;;;8.98;;
51238;SDS011;38154;47.548;18.828;2023-03-03T08:35:08;18.27;;;8.88;;
51238;SDS011;38154;47.548;18.828;2023-03-03T08:37:34;22.70;;;8.90;;
51238;SDS011;38154;47.548;18.828;2023-03-03T08:40:00;16.60;;;7.80;;
51238;SDS011;38154;47.548;18.828;2023-03-03T08:42:26;24.50;;;7.95;;
51238;SDS011;38154;47.548;18.828;2023-03-03T08:44:54;20.50;;;7.25;;
51238;SDS011;38154;47.548;18.828;2023-03-03T08:47:20;21.10;;;9.00;;
51238;SDS011;38154;47.548;18.828;2023-03-03T08:49:46;13.50;;;7.82;;
51238;SDS011;38154;47.548;18.828;2023-03-03T08:52:12;17.10;;;8.00;;
51238;SDS011;38154;47.548;18.828;2023-03-03T08:54:38;24.02;;;13.23;;
51238;SDS011;38154;47.548;18.828;2023-03-03T08:57:04;21.50;;;9.30;;
51238;SDS011;38154;47.548;18.828;2023-03-03T08:59:30;17.67;;;7.18;;
51238;SDS011;38154;47.548;18.828;2023-03-03T09:01:56;15.73;;;7.07;;
51238;SDS011;38154;47.548;18.828;2023-03-03T09:04:22;16.03;;;7.63;;
51238;SDS011;38154;47.548;18.828;2023-03-03T09:06:47;15.20;;;7.87;;
51238;SDS011;38154;47.548;18.828;2023-03-03T09:09:13;17.27;;;6.70;;
51238;SDS011;38154;47.548;18.828;2023-03-03T09:11:39;16.58;;;7.20;;
51238;SDS011;38154;47.548;18.828;2023-03-03T09:14:12;19.92;;;8.95;;
51238;SDS011;38154;47.548;18.828;2023-03-03T09:16:41;19.55;;;8.48;;
51238;SDS011;38154;47.548;18.828;2023-03-03T09:19:26;17.37;;;8.40;;
51238;SDS011;38154;47.548;18.828;2023-03-03T09:21:55;12.00;;;6.47;;
51238;SDS011;38154;47.548;18.828;2023-03-03T09:24:24;14.25;;;7.65;;
51238;SDS011;38154;47.548;18.828;2023-03-03T09:26:53;19.42;;;8.25;;
51238;SDS011;38154;47.548;18.828;2023-03-03T09:29:37;18.20;;;6.78;;
51238;SDS011;38154;47.548;18.828;2023-03-03T09:32:19;13.62;;;6.50;;
51238;SDS011;38154;47.548;18.828;2023-03-03T09:34:51;15.80;;;7.43;;
51238;SDS011;38154;47.548;18.828;2023-03-03T09:37:21;12.27;;;6.00;;
51238;SDS011;38154;47.548;18.828;2023-03-03T09:45:10;14.02;;;6.93;;
51238;SDS011;38154;47.548;18.828;2023-03-03T09:56:21;14.65;;;5.87;;
51238;SDS011;38154;47.548;18.828;2023-03-03T10:07:39;15.55;;;5.97;;
51238;SDS011;38154;47.548;18.828;2023-03-03T10:10:42;12.68;;;6.15;;
51238;SDS011;38154;47.548;18.828;2023-03-03T10:13:24;14.20;;;6.82;;
51238;SDS011;38154;47.548;18.828;2023-03-03T10:19:02;8.60;;;4.32;;
51238;SDS011;38154;47.548;18.828;2023-03-03T10:21:43;10.27;;;5.12;;
51238;SDS011;38154;47.548;18.828;2023-03-03T10:24:39;8.48;;;4.45;;
51238;SDS011;38154;47.548;18.828;2023-03-03T10:27:18;9.93;;;5.78;;
51238;SDS011;38154;47.548;18.828;2023-03-03T10:38:28;9.95;;;4.60;;
51238;SDS011;38154;47.548;18.828;2023-03-03T10:41:23;12.30;;;4.78;;
51238;SDS011;38154;47.548;18.828;2023-03-03T10:46:51;14.32;;;5.65;;
51238;SDS011;38154;47.548;18.828;2023-03-03T10:49:38;11.35;;;5.18;;
51238;SDS011;38154;47.548;18.828;2023-03-03T10:57:32;9.68;;;4.97;;
51238;SDS011;38154;47.548;18.828;2023-03-03T11:00:30;12.52;;;6.30;;
51238;SDS011;38154;47.548;18.828;2023-03-03T11:06:03;9.38;;;4.70;;
51238;SDS011;38154;47.548;18.828;2023-03-03T11:09:26;10.90;;;5.35;;
51238;SDS011;38154;47.548;18.828;2023-03-03T11:11:52;10.27;;;5.47;;
51238;SDS011;38154;47.548;18.828;2023-03-03T11:14:42;10.27;;;5.60;;
51238;SDS011;38154;47.548;18.828;2023-03-03T11:17:24;9.05;;;5.22;;
51238;SDS011;38154;47.548;18.828;2023-03-03T11:23:07;11.55;;;5.30;;
51238;SDS011;38154;47.548;18.828;2023-03-03T11:25:53;11.23;;;5.12;;
51238;SDS011;38154;47.548;18.828;2023-03-03T11:31:23;11.02;;;5.40;;
51238;SDS011;38154;47.548;18.828;2023-03-03T11:34:09;10.73;;;5.22;;
51238;SDS011;38154;47.548;18.828;2023-03-03T11:37:06;11.07;;;6.45;;
51238;SDS011;38154;47.548;18.828;2023-03-03T11:39:34;11.75;;;5.68;;
51238;SDS011;38154;47.548;18.828;2023-03-03T11:48:17;8.10;;;4.53;;
51238;SDS011;38154;47.548;18.828;2023-03-03T11:56:20;9.73;;;5.20;;
51238;SDS011;38154;47.548;18.828;2023-03-03T11:59:10;10.38;;;3.90;;
51238;SDS011;38154;47.548;18.828;2023-03-03T12:02:04;8.90;;;4.35;;
51238;SDS011;38154;47.548;18.828;2023-03-03T12:04:53;9.43;;;4.93;;
51238;SDS011;38154;47.548;18.828;2023-03-03T12:18:41;7.50;;;4.00;;
51238;SDS011;38154;47.548;18.828;2023-03-03T12:24:04;17.52;;;7.40;;
51238;SDS011;38154;47.548;18.828;2023-03-03T12:40:50;11.57;;;5.57;;
51238;SDS011;38154;47.548;18.828;2023-03-03T12:43:40;12.50;;;5.78;;
51238;SDS011;38154;47.548;18.828;2023-03-03T12:46:18;10.07;;;5.45;;
51238;SDS011;38154;47.548;18.828;2023-03-03T12:48:50;15.50;;;5.72;;
51238;SDS011;38154;47.548;18.828;2023-03-03T12:57:47;11.00;;;5.22;;
51238;SDS011;38154;47.548;18.828;2023-03-03T13:05:23;8.98;;;5.65;;
51238;SDS011;38154;47.548;18.828;2023-03-03T13:08:09;13.52;;;6.95;;
51238;SDS011;38154;47.548;18.828;2023-03-03T13:16:01;17.70;;;7.15;;
51238;SDS011;38154;47.548;18.828;2023-03-03T13:18:33;9.77;;;5.50;;
51238;SDS011;38154;47.548;18.828;2023-03-03T13:21:19;15.20;;;7.65;;
51238;SDS011;38154;47.548;18.828;2023-03-03T13:29:40;18.67;;;7.32;;
51238;SDS011;38154;47.548;18.828;2023-03-03T13:34:51;15.18;;;7.72;;
51238;SDS011;38154;47.548;18.828;2023-03-03T13:40:43;11.25;;;6.20;;
51238;SDS011;38154;47.548;18.828;2023-03-03T14:05:00;12.75;;;6.47;;
51238;SDS011;38154;47.548;18.828;2023-03-03T14:07:53;15.05;;;7.05;;
51238;SDS011;38154;47.548;18.828;2023-03-03T14:10:29;15.05;;;6.93;;
51238;SDS011;38154;47.548;18.828;2023-03-03T14:13:00;16.70;;;7.32;;
51238;SDS011;38154;47.548;18.828;2023-03-03T14:15:33;27.60;;;9.85;;
51238;SDS011;38154;47.548;18.828;2023-03-03T14:18:14;22.90;;;7.78;;
51238;SDS011;38154;47.548;18.828;2023-03-03T14:20:45;20.30;;;6.97;;
51238;SDS011;38154;47.548;18.828;2023-03-03T14:23:30;13.60;;;6.05;;
51238;SDS011;38154;47.548;18.828;2023-03-03T14:26:16;16.08;;;7.43;;
51238;SDS011;38154;47.548;18.828;2023-03-03T14:28:46;21.33;;;9.33;;
51238;SDS011;38154;47.548;18.828;2023-03-03T14:31:21;18.42;;;7.90;;
51238;SDS011;38154;47.548;18.828;2023-03-03T14:36:26;19.90;;;7.32;;
51238;SDS011;38154;47.548;18.828;2023-03-03T14:38:55;16.08;;;7.40;;
51238;SDS011;38154;47.548;18.828;2023-03-03T14:41:22;16.83;;;7.73;;
51238;SDS011;38154;47.548;18.828;2023-03-03T14:44:01;14.13;;;7.32;;
51238;SDS011;38154;47.548;18.828;2023-03-03T14:49:37;16.40;;;6.80;;
51238;SDS011;38154;47.548;18.828;2023-03-03T14:52:17;14.35;;;6.78;;
51238;SDS011;38154;47.548;18.828;2023-03-03T14:54:50;15.85;;;7.68;;
51238;SDS011;38154;47.548;18.828;2023-03-03T14:59:54;17.93;;;7.63;;
51238;SDS011;38154;47.548;18.828;2023-03-03T15:02:29;17.95;;;7.35;;
51238;SDS011;38154;47.548;18.828;2023-03-03T15:05:20;13.85;;;6.43;;
51238;SDS011;38154;47.548;18.828;2023-03-03T15:07:56;21.05;;;8.30;;
51238;SDS011;38154;47.548;18.828;2023-03-03T15:18:16;16.30;;;7.55;;
51238;SDS011;38154;47.548;18.828;2023-03-03T15:31:45;16.45;;;8.52;;
51238;SDS011;38154;47.548;18.828;2023-03-03T15:34:32;30.12;;;9.55;;
51238;SDS011;38154;47.548;18.828;2023-03-03T15:56:22;20.60;;;9.50;;
51238;SDS011;38154;47.548;18.828;2023-03-03T15:59:24;22.98;;;9.90;;
51238;SDS011;38154;47.548;18.828;2023-03-03T16:02:14;21.75;;;8.85;;
51238;SDS011;38154;47.548;18.828;2023-03-03T16:04:53;21.85;;;9.90;;
51238;SDS011;38154;47.548;18.828;2023-03-03T16:07:48;23.25;;;10.45;;
51238;SDS011;38154;47.548;18.828;2023-03-03T16:10:18;25.23;;;11.07;;
51238;SDS011;38154;47.548;18.828;2023-03-03T16:15:44;21.98;;;10.85;;
51238;SDS011;38154;47.548;18.828;2023-03-03T16:26:13;30.75;;;12.07;;
51238;SDS011;38154;47.548;18.828;2023-03-03T16:31:35;23.20;;;9.05;;
51238;SDS011;38154;47.548;18.828;2023-03-03T16:39:12;25.05;;;11.45;;
51238;SDS011;38154;47.548;18.828;2023-03-03T16:41:51;17.92;;;9.80;;
51238;SDS011;38154;47.548;18.828;2023-03-03T16:44:30;21.93;;;9.13;;
51238;SDS011;38154;47.548;18.828;2023-03-03T16:52:23;22.25;;;11.32;;
51238;SDS011;38154;47.548;18.828;2023-03-03T16:54:56;21.40;;;9.55;;
51238;SDS011;38154;47.548;18.828;2023-03-03T17:00:29;24.83;;;10.77;;
51238;SDS011;38154;47.548;18.828;2023-03-03T17:06:54;16.00;;;7.90;;
51238;SDS011;38154;47.548;18.828;2023-03-03T17:28:52;26.12;;;9.43;;
51238;SDS011;38154;47.548;18.828;2023-03-03T17:31:35;21.48;;;8.38;;
51238;SDS011;38154;47.548;18.828;2023-03-03T17:34:25;25.37;;;12.43;;
51238;SDS011;38154;47.548;18.828;2023-03-03T17:39:49;24.12;;;10.35;;
51238;SDS011;38154;47.548;18.828;2023-03-03T17:45:12;18.20;;;9.25;;
51238;SDS011;38154;47.548;18.828;2023-03-03T17:47:45;18.15;;;9.23;;
51238;SDS011;38154;47.548;18.828;2023-03-03T17:50:21;24.90;;;10.90;;
51238;SDS011;38154;47.548;18.828;2023-03-03T18:03:57;27.67;;;11.98;;
51238;SDS011;38154;47.548;18.828;2023-03-03T18:09:45;19.65;;;9.88;;
51238;SDS011;38154;47.548;18.828;2023-03-03T18:17:31;25.00;;;10.18;;
51238;SDS011;38154;47.548;18.828;2023-03-03T18:23:19;26.55;;;10.00;;
51238;SDS011;38154;47.548;18.828;2023-03-03T18:25:55;26.58;;;12.85;;
51238;SDS011;38154;47.548;18.828;2023-03-03T18:28:44;32.35;;;11.38;;
51238;SDS011;38154;47.548;18.828;2023-03-03T18:31:30;24.12;;;10.77;;
51238;SDS011;38154;47.548;18.828;2023-03-03T18:37:02;22.15;;;9.77;;
51238;SDS011;38154;47.548;18.828;2023-03-03T18:39:49;21.60;;;10.25;;
51238;SDS011;38154;47.548;18.828;2023-03-03T18:42:41;28.02;;;11.48;;
51238;SDS011;38154;47.548;18.828;2023-03-03T18:53:14;22.98;;;10.77;;
51238;SDS011;38154;47.548;18.828;2023-03-03T18:55:49;26.48;;;9.02;;
51238;SDS011;38154;47.548;18.828;2023-03-03T19:06:00;18.52;;;9.68;;
51238;SDS011;38154;47.548;18.828;2023-03-03T19:14:18;20.75;;;9.60;;
51238;SDS011;38154;47.548;18.828;2023-03-03T19:16:54;28.10;;;11.25;;
51238;SDS011;38154;47.548;18.828;2023-03-03T19:19:23;28.25;;;10.80;;
51238;SDS011;38154;47.548;18.828;2023-03-03T19:25:00;25.00;;;10.45;;
51238;SDS011;38154;47.548;18.828;2023-03-03T19:30:38;21.12;;;11.23;;
51238;SDS011;38154;47.548;18.828;2023-03-03T19:52:57;29.58;;;11.25;;
51238;SDS011;38154;47.548;18.828;2023-03-03T19:55:52;29.50;;;12.55;;
51238;SDS011;38154;47.548;18.828;2023-03-03T20:01:10;29.63;;;10.45;;
51238;SDS011;38154;47.548;18.828;2023-03-03T20:09:16;23.20;;;8.98;;
51238;SDS011;38154;47.548;18.828;2023-03-03T20:11:55;20.48;;;9.20;;
51238;SDS011;38154;47.548;18.828;2023-03-03T20:14:47;13.98;;;6.55;;
51238;SDS011;38154;47.548;18.828;2023-03-03T20:25:28;14.40;;;7.28;;
51238;SDS011;38154;47.548;18.828;2023-03-03T20:28:10;15.55;;;7.32;;
51238;SDS011;38154;47.548;18.828;2023-03-03T20:49:50;16.12;;;6.12;;
51238;SDS011;38154;47.548;18.828;2023-03-03T20:52:37;13.90;;;5.93;;
51238;SDS011;38154;47.548;18.828;2023-03-03T20:55:23;12.48;;;5.22;;
51238;SDS011;38154;47.548;18.828;2023-03-03T20:58:01;7.72;;;4.20;;
51238;SDS011;38154;47.548;18.828;2023-03-03T21:00:30;21.98;;;5.45;;
51238;SDS011;38154;47.548;18.828;2023-03-03T21:03:40;7.97;;;4.60;;
51238;SDS011;38154;47.548;18.828;2023-03-03T21:06:10;14.07;;;5.15;;
51238;SDS011;38154;47.548;18.828;2023-03-03T21:11:39;28.02;;;5.03;;
51238;SDS011;38154;47.548;18.828;2023-03-03T21:17:10;7.87;;;4.45;;
51238;SDS011;38154;47.548;18.828;2023-03-03T21:19:50;14.85;;;5.57;;
51238;SDS011;38154;47.548;18.828;2023-03-03T21:22:16;14.32;;;5.45;;
51238;SDS011;38154;47.548;18.828;2023-03-03T21:25:00;9.88;;;4.37;;
51238;SDS011;38154;47.548;18.828;2023-03-03T21:27:30;10.73;;;5.40;;
51238;SDS011;38154;47.548;18.828;2023-03-03T21:30:01;9.52;;;4.50;;
51238;SDS011;38154;47.548;18.828;2023-03-03T21:32:35;11.18;;;5.18;;
51238;SDS011;38154;47.548;18.828;2023-03-03T21:35:08;9.70;;;4.65;;
51238;SDS011;38154;47.548;18.828;2023-03-03T21:37:42;19.25;;;5.30;;